createdAt,value
2018-08-22T00:02:06.986Z,18.70
2018-08-22T00:04:34.222Z,18.70
2018-08-22T00:07:01.462Z,18.70
2018-08-22T00:09:28.701Z,18.70
2018-08-22T00:11:55.918Z,18.70
2018-08-22T00:14:23.153Z,18.60
2018-08-22T00:16:50.370Z,18.60
2018-08-22T00:19:17.617Z,18.60
2018-08-22T00:21:44.829Z,18.60
2018-08-22T00:24:12.045Z,18.50
2018-08-22T00:26:39.265Z,18.50
2018-08-22T00:29:06.512Z,18.50
2018-08-22T00:31:33.756Z,18.40
2018-08-22T00:34:00.997Z,18.40
2018-08-22T00:36:28.237Z,18.30
2018-08-22T00:38:55.489Z,18.30
2018-08-22T00:41:22.712Z,18.20
2018-08-22T00:43:49.974Z,18.20
2018-08-22T00:46:17.233Z,18.10
2018-08-22T00:48:44.477Z,18.10
2018-08-22T00:51:11.698Z,18.00
2018-08-22T00:53:39.009Z,18.00
2018-08-22T00:56:06.241Z,17.90
2018-08-22T00:58:33.554Z,17.90
2018-08-22T01:01:00.799Z,17.80
2018-08-22T01:03:28.062Z,17.80
2018-08-22T01:05:55.310Z,17.70
2018-08-22T01:08:22.582Z,17.70
2018-08-22T01:10:49.824Z,17.60
2018-08-22T01:13:17.062Z,17.50
2018-08-22T01:15:44.298Z,17.40
2018-08-22T01:18:11.847Z,17.40
2018-08-22T01:20:39.094Z,17.30
2018-08-22T01:23:06.686Z,17.20
2018-08-22T01:25:33.982Z,17.20
2018-08-22T01:28:01.250Z,17.10
2018-08-22T01:30:28.570Z,17.00
2018-08-22T01:32:56.805Z,17.00
2018-08-22T01:35:24.051Z,16.90
2018-08-22T01:37:51.426Z,16.90
2018-08-22T01:40:19.470Z,16.80
2018-08-22T01:42:46.693Z,16.70
2018-08-22T01:45:13.934Z,16.70
2018-08-22T01:50:27.938Z,16.60
2018-08-22T01:52:55.206Z,16.50
2018-08-22T01:55:22.592Z,16.40
2018-08-22T01:57:49.831Z,16.40
2018-08-22T02:00:17.149Z,16.30
2018-08-22T02:02:44.403Z,16.30
2018-08-22T02:05:11.659Z,16.30
2018-08-22T02:07:38.912Z,16.30
2018-08-22T02:10:06.257Z,16.30
2018-08-22T02:12:33.953Z,16.30
2018-08-22T02:15:01.235Z,16.30
2018-08-22T02:17:28.896Z,16.20
2018-08-22T02:19:57.991Z,16.30
2018-08-22T02:22:27.555Z,16.30
2018-08-22T02:24:56.352Z,16.30
2018-08-22T02:27:23.586Z,16.30
2018-08-22T02:29:50.858Z,16.30
2018-08-22T02:32:18.742Z,16.30
2018-08-22T02:34:46.005Z,16.30
2018-08-22T02:37:13.246Z,16.30
2018-08-22T02:39:40.500Z,16.30
2018-08-22T02:42:07.736Z,16.30
2018-08-22T02:44:35.019Z,16.30
2018-08-22T02:47:02.303Z,16.30
2018-08-22T02:49:29.560Z,16.30
2018-08-22T02:51:56.822Z,16.30
2018-08-22T02:54:24.118Z,16.30
2018-08-22T02:56:51.345Z,16.30
2018-08-22T02:59:18.549Z,16.30
2018-08-22T03:01:45.754Z,16.30
2018-08-22T03:04:13.417Z,16.30
2018-08-22T03:06:40.631Z,16.30
2018-08-22T03:09:08.382Z,16.30
2018-08-22T03:11:35.674Z,16.30
2018-08-22T03:14:03.489Z,16.20
2018-08-22T03:16:30.786Z,16.30
2018-08-22T03:18:58.038Z,16.30
2018-08-22T03:21:25.301Z,16.30
2018-08-22T03:23:52.561Z,16.20
2018-08-22T03:26:19.779Z,16.20
2018-08-22T03:28:47.009Z,16.10
2018-08-22T03:31:14.239Z,16.10
2018-08-22T03:33:41.466Z,16.10
2018-08-22T03:36:08.697Z,16.00
2018-08-22T03:38:35.938Z,15.90
2018-08-22T03:41:03.166Z,15.90
2018-08-22T03:43:30.368Z,15.80
2018-08-22T03:45:57.619Z,15.80
2018-08-22T03:48:24.844Z,15.70
2018-08-22T03:50:52.117Z,15.70
2018-08-22T03:53:19.368Z,15.60
2018-08-22T03:55:46.602Z,15.60
2018-08-22T03:58:13.831Z,15.50
2018-08-22T04:00:41.084Z,15.50
2018-08-22T04:03:08.333Z,15.40
2018-08-22T04:05:35.586Z,15.40
2018-08-22T04:08:03.765Z,15.40
2018-08-22T04:10:30.990Z,15.40
2018-08-22T04:12:58.215Z,15.30
2018-08-22T04:15:25.451Z,15.30
2018-08-22T04:17:52.694Z,15.30
2018-08-22T04:20:19.939Z,15.30
2018-08-22T04:22:47.161Z,15.30
2018-08-22T04:25:14.411Z,15.30
2018-08-22T04:27:41.671Z,15.30
2018-08-22T04:30:08.898Z,15.40
2018-08-22T04:32:36.134Z,15.40
2018-08-22T04:35:03.413Z,15.40
2018-08-22T04:37:30.712Z,15.40
2018-08-22T04:39:57.998Z,15.40
2018-08-22T04:42:25.254Z,15.30
2018-08-22T04:44:52.519Z,15.30
2018-08-22T04:47:19.745Z,15.30
2018-08-22T04:49:47.010Z,15.40
2018-08-22T04:52:14.698Z,15.40
2018-08-22T04:54:41.993Z,15.30
2018-08-22T04:57:09.226Z,15.30
2018-08-22T04:59:36.451Z,15.40
2018-08-22T05:02:03.746Z,15.40
2018-08-22T05:04:30.982Z,15.40
2018-08-22T05:06:58.215Z,15.40
2018-08-22T05:09:25.421Z,15.30
2018-08-22T05:11:52.656Z,15.30
2018-08-22T05:14:19.893Z,15.40
2018-08-22T05:16:47.163Z,15.40
2018-08-22T05:19:14.388Z,15.40
2018-08-22T05:21:41.614Z,15.40
2018-08-22T05:24:08.830Z,15.40
2018-08-22T05:26:36.107Z,15.40
2018-08-22T05:29:03.435Z,15.50
2018-08-22T05:31:30.690Z,15.50
2018-08-22T05:33:57.914Z,15.60
2018-08-22T05:36:25.161Z,15.70
2018-08-22T05:38:52.403Z,15.80
2018-08-22T05:41:19.651Z,16.00
2018-08-22T05:43:46.869Z,16.20
2018-08-22T05:46:14.123Z,16.30
2018-08-22T05:48:41.482Z,16.40
2018-08-22T05:51:08.955Z,16.50
2018-08-22T05:53:36.271Z,16.50
2018-08-22T05:56:03.567Z,16.50
2018-08-22T05:58:31.109Z,16.60
2018-08-22T06:00:58.350Z,16.60
2018-08-22T06:03:25.823Z,16.70
2018-08-22T06:05:53.090Z,16.90
2018-08-22T06:08:20.374Z,17.10
2018-08-22T06:10:47.598Z,17.20
2018-08-22T06:13:14.817Z,17.30
2018-08-22T06:15:42.106Z,17.40
2018-08-22T06:18:09.364Z,17.40
2018-08-22T06:20:36.614Z,17.50
2018-08-22T06:23:03.885Z,17.60
2018-08-22T06:25:31.157Z,17.70
2018-08-22T06:27:58.371Z,17.80
2018-08-22T06:30:25.591Z,17.90
2018-08-22T06:32:52.831Z,18.00
2018-08-22T06:35:20.056Z,18.10
2018-08-22T06:37:47.319Z,18.20
2018-08-22T06:40:14.542Z,18.40
2018-08-22T06:42:41.776Z,18.50
2018-08-22T06:45:09.747Z,18.70
2018-08-22T06:47:36.992Z,18.90
2018-08-22T06:50:04.445Z,19.00
2018-08-22T06:52:31.682Z,19.30
2018-08-22T06:54:58.935Z,19.50
2018-08-22T06:57:26.179Z,19.80
2018-08-22T06:59:53.422Z,20.20
2018-08-22T07:02:20.659Z,20.60
2018-08-22T07:04:47.870Z,20.90
2018-08-22T07:07:15.393Z,21.30
2018-08-22T07:09:42.606Z,21.70
2018-08-22T07:12:09.858Z,22.00
2018-08-22T07:14:37.085Z,22.30
2018-08-22T07:17:04.451Z,22.50
2018-08-22T07:19:31.690Z,22.70
2018-08-22T07:21:58.958Z,22.80
2018-08-22T07:24:26.197Z,22.90
2018-08-22T07:26:53.426Z,23.10
2018-08-22T07:29:20.695Z,23.40
2018-08-22T07:31:47.929Z,23.50
2018-08-22T07:34:15.180Z,23.60
2018-08-22T07:36:42.418Z,23.70
2018-08-22T07:39:11.613Z,23.80
2018-08-22T07:41:39.090Z,24.00
2018-08-22T07:44:06.530Z,24.40
2018-08-22T07:46:33.870Z,24.70
2018-08-22T07:49:01.102Z,25.00
2018-08-22T07:51:28.335Z,25.40
2018-08-22T07:53:55.580Z,25.80
2018-08-22T07:56:24.034Z,26.10
2018-08-22T07:59:02.858Z,26.40
2018-08-22T08:01:30.430Z,26.70
2018-08-22T08:03:57.699Z,27.00
2018-08-22T08:06:24.925Z,27.20
2018-08-22T08:08:52.151Z,27.50
2018-08-22T08:11:19.383Z,27.70
2018-08-22T08:13:46.645Z,28.00
2018-08-22T08:16:13.874Z,28.30
2018-08-22T08:18:41.127Z,28.60
2018-08-22T08:21:08.347Z,28.80
2018-08-22T08:23:35.595Z,29.00
2018-08-22T08:26:02.836Z,29.20
2018-08-22T08:28:30.794Z,29.60
2018-08-22T08:30:58.046Z,29.90
2018-08-22T08:33:25.524Z,30.10
2018-08-22T08:35:52.839Z,30.30
2018-08-22T08:38:20.000Z,30.50
2018-08-22T08:40:47.214Z,30.70
2018-08-22T08:43:14.490Z,31.10
2018-08-22T08:45:41.678Z,31.40
2018-08-22T08:48:08.911Z,31.40
2018-08-22T08:50:36.163Z,31.50
2018-08-22T08:53:03.515Z,31.80
2018-08-22T08:55:30.747Z,32.20
2018-08-22T08:57:57.998Z,32.60
2018-08-22T09:00:25.363Z,32.90
2018-08-22T09:02:52.612Z,33.30
2018-08-22T09:05:19.871Z,33.50
2018-08-22T09:07:47.127Z,33.70
2018-08-22T09:10:14.378Z,34.00
2018-08-22T09:12:41.628Z,34.20
2018-08-22T09:15:08.895Z,34.40
2018-08-22T09:17:36.153Z,34.70
2018-08-22T09:20:04.109Z,34.90
2018-08-22T09:22:31.379Z,35.10
2018-08-22T09:24:58.611Z,35.20
2018-08-22T09:27:25.888Z,35.10
2018-08-22T09:29:53.144Z,35.00
2018-08-22T09:32:20.354Z,35.10
2018-08-22T09:34:47.595Z,35.00
2018-08-22T09:37:15.111Z,35.00
2018-08-22T09:39:42.392Z,34.80
2018-08-22T09:42:09.622Z,34.60
2018-08-22T09:44:36.867Z,34.40
2018-08-22T09:47:04.096Z,34.40
2018-08-22T09:49:31.342Z,34.50
2018-08-22T09:51:58.602Z,34.70
2018-08-22T09:54:26.111Z,35.00
2018-08-22T09:56:53.330Z,35.30
2018-08-22T09:59:20.568Z,35.50
2018-08-22T10:01:47.821Z,35.80
2018-08-22T10:04:15.059Z,36.00
2018-08-22T10:06:44.441Z,36.30
2018-08-22T10:09:13.655Z,36.60
2018-08-22T10:11:40.926Z,36.80
2018-08-22T10:14:08.163Z,36.90
2018-08-22T10:16:35.411Z,37.20
2018-08-22T10:19:02.689Z,37.70
2018-08-22T10:21:30.175Z,38.00
2018-08-22T10:23:57.430Z,38.20
2018-08-22T10:26:24.692Z,38.30
2018-08-22T10:28:52.582Z,38.60
2018-08-22T10:31:20.055Z,38.80
2018-08-22T10:33:47.326Z,38.80
2018-08-22T10:36:14.673Z,38.90
2018-08-22T10:38:41.915Z,38.60
2018-08-22T10:41:09.466Z,38.70
2018-08-22T10:43:36.737Z,38.70
2018-08-22T10:46:04.118Z,38.70
2018-08-22T10:48:31.363Z,38.90
2018-08-22T10:50:58.651Z,39.00
2018-08-22T10:53:25.949Z,38.90
2018-08-22T10:55:53.173Z,38.50
2018-08-22T10:58:20.487Z,38.50
2018-08-22T11:00:47.784Z,38.60
2018-08-22T11:03:15.055Z,38.60
2018-08-22T11:05:42.334Z,38.50
2018-08-22T11:08:09.583Z,38.40
2018-08-22T11:10:36.839Z,38.20
2018-08-22T11:13:04.078Z,38.10
2018-08-22T11:15:31.343Z,38.30
2018-08-22T11:17:58.576Z,38.80
2018-08-22T11:20:27.090Z,39.00
2018-08-22T11:23:05.792Z,38.70
2018-08-22T11:25:44.459Z,38.50
2018-08-22T11:28:23.183Z,38.70
2018-08-22T11:31:01.773Z,39.20
2018-08-22T11:33:40.386Z,39.40
2018-08-22T11:36:06.862Z,39.60
2018-08-22T11:38:34.115Z,39.20
2018-08-22T11:41:01.395Z,39.10
2018-08-22T11:43:28.630Z,39.00
2018-08-22T11:45:55.899Z,38.60
2018-08-22T11:48:23.122Z,38.60
2018-08-22T11:50:50.590Z,38.80
2018-08-22T11:53:17.875Z,38.70
2018-08-22T11:55:45.117Z,38.80
2018-08-22T11:58:12.338Z,38.80
2018-08-22T12:00:39.573Z,39.10
2018-08-22T12:03:06.803Z,38.90
2018-08-22T12:05:34.053Z,38.90
2018-08-22T12:08:01.283Z,39.10
2018-08-22T12:10:30.913Z,39.30
2018-08-22T12:12:59.321Z,39.50
2018-08-22T12:15:26.575Z,39.30
2018-08-22T12:17:53.942Z,39.30
2018-08-22T12:20:21.190Z,39.40
2018-08-22T12:22:48.451Z,38.50
2018-08-22T12:25:15.687Z,38.30
2018-08-22T12:27:42.922Z,38.60
2018-08-22T12:30:10.178Z,39.00
2018-08-22T12:32:37.458Z,39.10
2018-08-22T12:35:05.143Z,39.00
2018-08-22T12:37:32.362Z,38.60
2018-08-22T12:39:59.622Z,38.50
2018-08-22T12:42:26.873Z,38.00
2018-08-22T12:44:54.143Z,38.40
2018-08-22T12:47:21.393Z,38.40
2018-08-22T12:49:49.133Z,38.30
2018-08-22T12:52:16.623Z,38.20
2018-08-22T12:54:44.046Z,38.00
2018-08-22T12:57:11.321Z,38.30
2018-08-22T12:59:38.519Z,38.40
2018-08-22T13:02:05.794Z,38.60
2018-08-22T13:04:33.119Z,38.50
2018-08-22T13:07:00.378Z,38.60
2018-08-22T13:09:27.625Z,38.40
2018-08-22T13:11:54.866Z,38.30
2018-08-22T13:14:22.226Z,38.00
2018-08-22T13:16:49.636Z,38.10
2018-08-22T13:19:16.877Z,38.30
2018-08-22T13:21:44.166Z,38.30
2018-08-22T13:24:11.453Z,38.20
2018-08-22T13:26:38.654Z,38.10
2018-08-22T13:29:05.993Z,38.20
2018-08-22T13:31:33.213Z,37.40
2018-08-22T13:34:00.459Z,36.30
2018-08-22T13:36:28.410Z,36.20
2018-08-22T13:38:55.649Z,36.10
2018-08-22T13:41:22.894Z,36.30
2018-08-22T13:43:50.126Z,36.10
2018-08-22T13:46:18.378Z,35.90
2018-08-22T13:48:45.620Z,35.30
2018-08-22T13:51:12.902Z,35.00
2018-08-22T13:53:40.166Z,34.50
2018-08-22T13:56:07.474Z,34.40
2018-08-22T13:58:34.683Z,34.30
2018-08-22T14:01:01.926Z,34.30
2018-08-22T14:03:29.171Z,34.50
2018-08-22T14:05:56.441Z,34.80
2018-08-22T14:08:23.687Z,34.80
2018-08-22T14:10:50.929Z,34.90
2018-08-22T14:13:18.181Z,35.00
2018-08-22T14:15:45.401Z,34.80
2018-08-22T14:18:12.642Z,34.40
2018-08-22T14:20:39.902Z,33.90
2018-08-22T14:23:07.779Z,33.50
2018-08-22T14:25:35.019Z,33.40
2018-08-22T14:28:02.348Z,33.60
2018-08-22T14:30:29.614Z,33.80
2018-08-22T14:32:56.839Z,34.00
2018-08-22T14:35:24.106Z,34.30
2018-08-22T14:37:51.337Z,34.50
2018-08-22T14:40:18.588Z,34.60
2018-08-22T14:42:45.841Z,34.60
2018-08-22T14:45:13.346Z,34.60
2018-08-22T14:47:40.621Z,34.60
2018-08-22T14:50:07.889Z,34.50
2018-08-22T14:52:35.426Z,34.70
2018-08-22T14:55:02.720Z,34.50
2018-08-22T14:57:29.938Z,34.50
2018-08-22T14:59:57.486Z,34.30
2018-08-22T15:02:24.836Z,34.20
2018-08-22T15:04:51.957Z,34.10
2018-08-22T15:07:19.181Z,34.00
2018-08-22T15:09:46.435Z,34.00
2018-08-22T15:12:13.665Z,33.60
2018-08-22T15:14:40.935Z,33.40
2018-08-22T15:17:08.185Z,33.20
2018-08-22T15:19:35.401Z,33.00
2018-08-22T15:22:02.650Z,32.90
2018-08-22T15:24:29.874Z,32.90
2018-08-22T15:26:57.110Z,32.80
2018-08-22T15:29:25.310Z,32.70
2018-08-22T15:31:52.554Z,32.50
2018-08-22T15:34:19.823Z,32.40
2018-08-22T15:36:47.077Z,32.40
2018-08-22T15:39:14.309Z,32.50
2018-08-22T15:41:41.589Z,32.60
2018-08-22T15:44:08.813Z,32.70
2018-08-22T15:46:36.069Z,32.80
2018-08-22T15:49:03.319Z,32.90
2018-08-22T15:51:30.581Z,33.00
2018-08-22T15:54:07.401Z,33.00
2018-08-22T15:56:35.447Z,32.90
2018-08-22T15:59:02.759Z,32.70
2018-08-22T16:01:30.010Z,32.40
2018-08-22T16:03:57.233Z,32.30
2018-08-22T16:06:24.487Z,32.10
2018-08-22T16:08:51.750Z,31.80
2018-08-22T16:11:18.990Z,31.70
2018-08-22T16:13:46.230Z,31.60
2018-08-22T16:16:13.449Z,31.50
2018-08-22T16:18:40.714Z,31.40
2018-08-22T16:21:07.959Z,31.20
2018-08-22T16:23:35.337Z,31.00
2018-08-22T16:26:03.686Z,30.90
2018-08-22T16:28:42.869Z,30.80
2018-08-22T16:31:10.207Z,30.60
2018-08-22T16:33:37.425Z,30.50
2018-08-22T16:36:04.703Z,30.40
2018-08-22T16:38:31.999Z,30.40
2018-08-22T16:40:59.234Z,30.30
2018-08-22T16:43:38.963Z,30.30
2018-08-22T16:46:07.709Z,30.20
2018-08-22T16:48:35.239Z,30.20
2018-08-22T16:51:02.473Z,30.10
2018-08-22T16:53:29.734Z,30.00
2018-08-22T16:55:57.819Z,30.10
2018-08-22T16:58:25.077Z,30.10
2018-08-22T17:00:52.310Z,30.10
2018-08-22T17:03:19.567Z,30.00
2018-08-22T17:05:46.806Z,29.90
2018-08-22T17:08:14.063Z,29.80
2018-08-22T17:10:50.839Z,29.70
2018-08-22T17:13:27.584Z,29.60
2018-08-22T17:15:54.821Z,29.50
2018-08-22T17:18:22.095Z,29.40
2018-08-22T17:20:49.438Z,29.30
2018-08-22T17:23:16.746Z,29.20
2018-08-22T17:25:43.954Z,29.10
2018-08-22T17:28:11.186Z,28.90
2018-08-22T17:30:38.553Z,28.80
2018-08-22T17:33:06.620Z,28.80
2018-08-22T17:35:48.603Z,28.60
2018-08-22T17:38:15.873Z,28.50
2018-08-22T17:40:43.090Z,28.40
2018-08-22T17:43:10.339Z,28.30
2018-08-22T17:45:38.817Z,28.20
2018-08-22T17:48:06.509Z,28.00
2018-08-22T17:50:33.844Z,27.90
2018-08-22T17:53:05.987Z,27.80
2018-08-22T17:55:33.271Z,27.60
2018-08-22T17:58:00.573Z,27.50
2018-08-22T18:00:29.739Z,27.40
2018-08-22T18:02:57.259Z,27.20
2018-08-22T18:05:24.513Z,27.20
2018-08-22T18:07:51.764Z,27.00
2018-08-22T18:10:19.055Z,26.80
2018-08-22T18:12:46.313Z,26.60
2018-08-22T18:15:13.535Z,26.30
2018-08-22T18:17:40.802Z,26.00
2018-08-22T18:20:08.051Z,25.80
2018-08-22T18:22:36.976Z,25.60
2018-08-22T18:25:04.826Z,25.40
2018-08-22T18:27:32.199Z,25.10
2018-08-22T18:29:59.358Z,25.00
2018-08-22T18:32:26.589Z,24.80
2018-08-22T18:35:04.381Z,24.50
2018-08-22T18:37:32.011Z,24.30
2018-08-22T18:40:07.762Z,24.10
2018-08-22T18:42:35.114Z,24.00
2018-08-22T18:45:02.430Z,23.80
2018-08-22T18:47:31.038Z,23.60
2018-08-22T18:49:58.266Z,23.50
2018-08-22T18:52:25.497Z,23.30
2018-08-22T18:54:52.750Z,23.20
2018-08-22T18:57:20.009Z,23.10
2018-08-22T18:59:47.295Z,22.90
2018-08-22T19:02:14.547Z,22.80
2018-08-22T19:04:41.795Z,22.60
2018-08-22T19:07:09.038Z,22.50
2018-08-22T19:09:36.270Z,22.40
2018-08-22T19:12:03.605Z,22.30
2018-08-22T19:14:42.294Z,22.20
2018-08-22T19:17:09.579Z,22.10
2018-08-22T19:19:41.343Z,21.90
2018-08-22T19:22:08.574Z,21.90
2018-08-22T19:24:35.824Z,21.70
2018-08-22T19:27:03.120Z,21.70
2018-08-22T19:29:30.382Z,21.60
2018-08-22T19:31:57.609Z,21.50
2018-08-22T19:34:24.842Z,21.40
2018-08-22T19:36:52.078Z,21.30
2018-08-22T19:39:19.396Z,21.20
2018-08-22T19:41:46.646Z,21.10
2018-08-22T19:44:13.865Z,21.00
2018-08-22T19:46:41.117Z,20.90
2018-08-22T19:49:08.435Z,20.80
2018-08-22T19:51:35.755Z,20.70
2018-08-22T19:54:07.657Z,20.60
2018-08-22T19:56:34.877Z,20.60
2018-08-22T19:59:02.773Z,20.50
2018-08-22T20:01:32.565Z,20.40
2018-08-22T20:03:59.822Z,20.30
2018-08-22T20:06:27.169Z,20.20
2018-08-22T20:08:55.678Z,20.20
2018-08-22T20:11:23.137Z,20.10
2018-08-22T20:13:56.718Z,20.00
2018-08-22T20:16:24.062Z,20.00
2018-08-22T20:18:53.635Z,19.90
2018-08-22T20:21:26.681Z,19.80
2018-08-22T20:23:54.803Z,19.80
2018-08-22T20:26:22.801Z,19.70
2018-08-22T20:28:52.778Z,19.60
2018-08-22T20:31:20.059Z,19.60
2018-08-22T20:33:58.741Z,19.50
2018-08-22T20:36:25.994Z,19.50
2018-08-22T20:38:53.237Z,19.40
2018-08-22T20:41:21.096Z,19.40
2018-08-22T20:43:49.024Z,19.30
2018-08-22T20:46:16.301Z,19.30
2018-08-22T20:48:47.011Z,19.20
2018-08-22T20:51:14.263Z,19.20
2018-08-22T20:53:41.506Z,19.10
2018-08-22T20:56:08.781Z,19.10
2018-08-22T20:58:36.083Z,19.00
2018-08-22T21:01:03.358Z,19.00
2018-08-22T21:03:30.593Z,18.90
2018-08-22T21:05:57.837Z,18.90
2018-08-22T21:08:25.080Z,18.80
2018-08-22T21:10:52.316Z,18.80
2018-08-22T21:13:25.320Z,18.70
2018-08-22T21:15:52.580Z,18.70
2018-08-22T21:18:19.842Z,18.60
2018-08-22T21:20:47.098Z,18.50
2018-08-22T21:23:14.350Z,18.50
2018-08-22T21:25:43.681Z,18.50
2018-08-22T21:28:11.363Z,18.40
2018-08-22T21:30:38.725Z,18.40
2018-08-22T21:33:05.990Z,18.30
2018-08-22T21:35:33.207Z,18.20
2018-08-22T21:38:07.960Z,18.20
2018-08-22T21:40:35.219Z,18.20
2018-08-22T21:43:02.471Z,18.10
2018-08-22T21:45:29.697Z,18.10
2018-08-22T21:48:11.391Z,18.00
2018-08-22T21:50:38.606Z,17.90
2018-08-22T21:53:05.881Z,17.80
2018-08-22T21:55:36.330Z,17.80
2018-08-22T21:58:04.291Z,17.80
2018-08-22T22:00:31.613Z,17.70
2018-08-22T22:02:58.836Z,17.70
2018-08-22T22:05:37.579Z,17.70
2018-08-22T22:08:05.274Z,17.60
2018-08-22T22:10:32.525Z,17.50
2018-08-22T22:12:59.764Z,17.50
2018-08-22T22:15:32.730Z,17.40
2018-08-22T22:17:59.984Z,17.30
2018-08-22T22:20:27.470Z,17.30
2018-08-22T22:22:54.691Z,17.20
2018-08-22T22:25:21.934Z,17.20
2018-08-22T22:27:49.199Z,17.10
2018-08-22T22:30:16.489Z,17.10
2018-08-22T22:32:43.771Z,17.10
2018-08-22T22:35:11.051Z,17.00
2018-08-22T22:37:38.319Z,17.00
2018-08-22T22:40:05.574Z,17.00
2018-08-22T22:42:32.815Z,16.90
2018-08-22T22:45:00.054Z,16.90
2018-08-22T22:47:30.185Z,16.90
2018-08-22T22:49:57.915Z,16.80
2018-08-22T22:52:30.711Z,16.80
2018-08-22T22:55:00.058Z,16.80
2018-08-22T22:57:29.043Z,16.70
2018-08-22T22:59:57.521Z,16.70
2018-08-22T23:02:25.578Z,16.70
2018-08-22T23:04:53.667Z,16.70
2018-08-22T23:07:22.674Z,16.60
2018-08-22T23:09:51.355Z,16.60
2018-08-22T23:12:23.387Z,16.60
2018-08-22T23:14:51.090Z,16.60
2018-08-22T23:17:18.316Z,16.60
2018-08-22T23:19:45.545Z,16.60
2018-08-22T23:22:12.785Z,16.50
2018-08-22T23:24:40.003Z,16.50
2018-08-22T23:27:07.231Z,16.50
2018-08-22T23:29:34.450Z,16.40
2018-08-22T23:32:01.744Z,16.40
2018-08-22T23:34:28.946Z,16.30
2018-08-22T23:36:56.227Z,16.30
2018-08-22T23:39:23.454Z,16.30
2018-08-22T23:41:50.747Z,16.30
2018-08-22T23:44:17.978Z,16.30
2018-08-22T23:46:45.209Z,16.30
2018-08-22T23:49:12.434Z,16.30
2018-08-22T23:51:39.690Z,16.20
2018-08-22T23:54:07.077Z,16.30
2018-08-22T23:56:34.301Z,16.20
2018-08-22T23:59:01.542Z,16.20
